• Join FlightAware (Why Join?)
  • Login
  • US Flag 
07:22PM EDT


 

Airport Tracker/Info


-or-


 

Live Flight TrackerFlight Track Log ✈ DAL6044 ✈ 06-Aug-2013 ✈ KCLE - KLGA

Flight Track Log - Related Links

Times and Time Zones

All times are in EDT time to prevent confusion due to time zone crossing. See the DAL6044 flight status page for this flight to view local times or setup timezone preferences in your user account.

Time Position Orientation Groundspeed Altitude Reporting Facility
EDT Latitude Longitude Course Direction KTS MPH feet Rate Location/Type
07:14PM 41.3981 -81.8758 105° East 170 196 1,700  Level Cleveland Center
07:14PM 41.3975 -81.9228 269° West 216 249 3,300 2,760 Climbing Cleveland Center
07:15PM 41.4094 -81.9731 288° West 239 275 5,400 3,000 Climbing Cleveland Center
07:16PM 41.4861 -82.0272 332° Northwest 236 272 9,300 2,520 Climbing Cleveland Center
07:17PM 41.5369 -81.9425 51° Northeast 194 223 11,400 1,920 Climbing Cleveland Center
07:18PM 41.5944 -81.8408 53° Northeast 279 321 13,200 1,740 Climbing Cleveland Center
07:19PM 41.8027 -81.2302 105° East  Level FlightAware Approximate
07:19PM 41.6475 -81.7503 52° Northeast 327 376 14,900  Level Cleveland Center
07:20PM 41.7111 -81.6428 52° Northeast 355 409 16,900 1,980 Climbing Cleveland Center
07:21PM 41.7725 -81.5353 53° Northeast 360 414 18,900 1,860 Climbing Cleveland Center
07:22PM 41.8256 -81.4192 58° Northeast 370 426 20,700 1,680 Climbing Cleveland Center
07:23PM 41.8203 -81.2603 92° East 360 414 22,300 1,500 Climbing Cleveland Center
07:24PM 41.8003 -81.1067 100° East 378 435 23,800 1,620 Climbing Cleveland Center
07:25PM 41.7822 -80.9478 99° East 400 460 25,600 1,920 Climbing Cleveland Center
07:26PM 41.7658 -80.7919 98° East 421 484 27,700 2,100 Climbing Cleveland Center
07:27PM 41.7389 -80.6417 103° East 421 484 29,800 1,560 Climbing Cleveland Center
07:28PM 41.7078 -80.4886 105° East 421 484 30,900 600 Climbing Cleveland Center
07:29PM 41.6742 -80.3192 105° East 446 513 31,000 300 Climbing Cleveland Center
07:30PM 41.6422 -80.1442 104° East 471 542 31,600 900 Climbing Cleveland Center
07:31PM 41.6039 -79.9694 106° East 481 554 32,800 660 Climbing Cleveland Center
07:32PM 41.5425 -79.8064 117° Southeast 486 559 33,000 60 Climbing Cleveland Center
07:33PM 41.4394 -79.6858 139° Southeast 480 552 33,000  Level Cleveland Center
07:34PM 41.3469 -79.5792 139° Southeast 474 545 33,000  Level Cleveland Center
07:35PM 41.2436 -79.4564 138° Southeast 485 558 33,000  Level Cleveland Center
07:36PM 41.2042 -79.2750 106° East 459 528 33,000  Level Cleveland Center
07:37PM 41.2083 -79.1011 88° East 450 518 33,000  Level Cleveland Center
07:38PM 41.2100 -78.9244 89° East 455 524 33,000  Level Cleveland Center
07:39PM 41.2119 -78.7697 89° East 460 529 33,000  Level Cleveland Center
07:42PM 41.2161 -78.3319 89° East 471 542 33,000  Level New York Center
07:43PM 41.2144 -78.1578 91° East 476 548 33,000  Level New York Center
07:44PM 41.1961 -77.9819 98° East 476 548 33,000 -180 Level New York Center
07:45PM 41.1728 -77.8142 100° East 476 548 32,700 -600 Descending New York Center
07:46PM 41.1517 -77.6436 99° East 471 542 31,800 -960 Descending New York Center
07:47PM 41.1300 -77.4733 100° East 466 536 30,900 -960 Descending New York Center
07:48PM 41.1094 -77.3225 100° East 471 542 30,000 -960 Descending New York Center
07:49PM 41.0869 -77.1581 100° East 471 542 29,000 -960 Descending New York Center
07:50PM 41.0644 -76.9933 100° East 466 536 28,100 -1,140 Descending New York Center
07:51PM 41.0436 -76.8319 100° East 454 522 26,800 -1,860 Descending New York Center
07:52PM 41.0186 -76.6700 102° East 449 517 24,500 -2,340 Descending New York Center
07:53PM 40.9847 -76.5133 106° East 444 511 22,100 -2,460 Descending New York Center
07:54PM 40.9500 -76.3647 107° East 437 503 19,700 -2,160 Descending New York Center
07:55PM 40.9153 -76.2164 107° East 402 463 17,800 -1,680 Descending New York Center
07:56PM 40.8850 -76.1014 109° East 371 427 16,400 -1,560 Descending New York Center
07:57PM 40.8536 -75.9672 107° East 358 412 14,800 -1,500 Descending New York Center
07:58PM 40.8253 -75.8525 108° East 341 392 13,400 -900 Descending New York Center
07:59PM 40.7986 -75.7408 107° East 324 373 13,000 -240 Descending New York Center
08:00PM 40.7719 -75.6347 108° East 324 373 13,000  Level New York Center
08:01PM 40.7431 -75.5206 108° East 330 380 13,000  Level New York Center
08:02PM 40.7147 -75.3981 107° East 338 389 13,000  Level New York Center
08:03PM 40.6867 -75.2619 105° East 345 397 13,000 -240 Level New York Center
08:04PM 40.6656 -75.1567 105° East 345 397 12,600 -1,140 Descending New York Center
08:05PM 40.6025 -75.0597 131° Southeast 319 367 10,800 -1,320 Descending New York Center
08:06PM 40.5539 -74.9611 123° Southeast 314 361 10,000 -420 Descending New York Center
08:07PM 40.5258 -74.8664 111° Southeast 308 354 10,000  Level New York Center
08:08PM 40.4922 -74.7581 112° Southeast 313 360 10,000  Level New York Center
08:09PM 40.4583 -74.6497 112° Southeast 320 368 10,000  Level New York Center
08:10PM 40.4328 -74.5339 106° East 320 368 10,000 -300 Level New York Center
08:11PM 40.4589 -74.4342 71° East 289 333 9,400 -840 Descending New York Center
08:12PM 40.4833 -74.3167 75° East 290 334 8,300 -1,080 Descending New York TRACON
08:13PM 40.5167 -74.2167 66° East 275 316 7,300 -1,020 Descending New York TRACON
08:14PM 40.5333 -74.1333 75° East 261 300 6,300 -1,020 Descending New York TRACON
08:15PM 40.6000 -74.0833 30° Northeast 264 304 5,400 -1,020 Descending New York TRACON
08:16PM 40.6667 -74.0500 21° North 257 296 4,400 -720 Descending New York TRACON
08:17PM 40.7333 -74.0333 11° North 262 302 4,000 -240 Descending New York TRACON
08:18PM 40.7833 -74.0000 27° Northeast 209 241 4,000  Level New York TRACON
08:19PM 40.8333 -73.9667 27° Northeast 198 228 4,000  Level New York TRACON
08:20PM 40.8833 -73.9333 27° Northeast 199 229 4,000  Level New York TRACON
08:21PM 40.9333 -73.9000 27° Northeast 203 234 4,000 -480 Level New York TRACON
08:22PM 40.9500 -73.8333 72° East 201 231 3,100 -960 Descending New York TRACON
08:23PM 40.9167 -73.7833 131° Southeast 184 212 2,000 -600 Descending New York TRACON
08:24PM 40.8667 -73.8000 194° South 167 192 1,900 -300 Descending New York TRACON
08:25PM 40.8500 -73.8167 217° Southwest 124 143 1,500 -600 Descending New York TRACON
08:26PM 40.8167 -73.8500 217° Southwest 122 140 800 -660 Descending New York TRACON